Rechercher aéroport 
image banner adimage banner ad
image banner ad

SJDU - Nossa Senhora do Loreto Airport

Situé à Uruguaiana, Brazil

ICAO - SJDU, IATA -

Données fournies par Airmate  

Information générale

Coordonnées: S29°43'41" W56°57'37"
Élévation : 318 feet MSL.
Variation magnétique : -13° East
Voir autres Aéroports à Rio Grande do Sul

Données opérationnelles

Accessible au public
Heure actuelle UTC:
Heure actuelle locale:
Météo à : SBUG - Rubem Berta ( 10 km )
TAF: TAF SBUG 300900Z 3012/3024 09013KT CAVOK TX30/3018Z TN25/3024Z RMK PED
Voir NOTAMs / SUP AIP / TFR affectant cet aéroport [VIEW]
Fréquences de communication: [VIEW]

Pistes:

Identifiant RWYQFULongueur (ft)Largeur (ft)SurfaceLDA (ft)
10114859GRASS
28114859GRASS

Coordonnées de l'aéroport

Adresse: Uruguaiana Brazil

Vue satellite de SJDU